Time;durP1;ratioP1;P1;durP2;ratioP2;P2;SDS_P1;SDS_P2;PMS_P1;PMS_P2;Temp;Humidity;BMP_temperature;BMP_pressure;BME280_temperature;BME280_humidity;BME280_pressure;Samples;Min_cycle;Max_cycle;Signal;HPM_P1;HPM_P2
2022/03/14 00:02:13;;;;;;;2.78;1.98;;;17.50;48.80;;;;;;5054402;28;20650;-68
2022/03/14 00:04:38;;;;;;;2.20;1.80;;;17.90;49.00;;;;;;5053976;28;20233;-66
2022/03/14 00:07:05;;;;;;;1.95;1.75;;;17.90;48.90;;;;;;5053937;28;20219;-66
2022/03/14 00:09:30;;;;;;;1.83;1.73;;;17.90;49.00;;;;;;5054410;28;20544;-67
2022/03/14 00:11:56;;;;;;;2.03;1.83;;;17.90;49.00;;;;;;5054542;28;20595;-68
2022/03/14 00:14:22;;;;;;;2.03;1.65;;;17.90;49.00;;;;;;5053541;28;20254;-68
2022/03/14 00:16:47;;;;;;;3.00;1.95;;;17.90;49.00;;;;;;5054291;28;20630;-68
2022/03/14 00:19:13;;;;;;;2.05;1.85;;;17.80;48.90;;;;;;5053317;28;20183;-67
2022/03/14 00:21:39;;;;;;;1.70;1.60;;;17.80;49.60;;;;;;5054142;28;20187;-68
2022/03/14 00:24:05;;;;;;;1.83;1.73;;;17.90;48.90;;;;;;5054156;28;20652;-67
2022/03/14 00:26:31;;;;;;;1.83;1.73;;;17.80;48.80;;;;;;5053454;28;20310;-68
2022/03/14 00:28:57;;;;;;;1.80;1.70;;;17.80;48.90;;;;;;5054187;28;20258;-67
2022/03/14 00:31:26;;;;;;;1.83;1.73;;;17.80;48.90;;;;;;5054067;28;20183;-68
2022/03/14 00:33:51;;;;;;;1.83;1.73;;;17.80;48.90;;;;;;5054006;28;20187;-66
2022/03/14 00:36:18;;;;;;;1.73;1.63;;;17.80;48.90;;;;;;5054348;28;20685;-67
2022/03/14 00:38:44;;;;;;;1.98;1.80;;;17.80;48.90;;;;;;5054229;28;20228;-66
2022/03/14 00:41:09;;;;;;;1.95;1.80;;;17.80;48.90;;;;;;5053265;28;20211;-67
2022/03/14 00:43:35;;;;;;;1.85;1.75;;;17.80;48.90;;;;;;5053987;28;20174;-67
2022/03/14 00:46:00;;;;;;;1.67;1.58;;;17.80;48.90;;;;;;5053934;28;20634;-67
2022/03/14 00:48:26;;;;;;;1.60;1.50;;;17.80;48.90;;;;;;5052679;28;20242;-67
2022/03/14 00:50:52;;;;;;;1.80;1.70;;;17.80;48.90;;;;;;5054740;28;20681;-68
2022/03/14 00:53:17;;;;;;;1.70;1.60;;;17.80;48.90;;;;;;5053343;28;20175;-67
2022/03/14 00:55:46;;;;;;;1.58;1.48;;;17.80;48.90;;;;;;5052740;28;20217;-67
2022/03/14 00:58:15;;;;;;;1.45;1.35;;;17.80;48.90;;;;;;5053440;28;20175;-67
2022/03/14 01:00:40;;;;;;;1.58;1.48;;;17.80;48.90;;;;;;5053589;28;20217;-66
2022/03/14 01:03:05;;;;;;;1.48;1.38;;;17.80;48.90;;;;;;5052703;28;20175;-66
2022/03/14 01:05:31;;;;;;;1.63;1.52;;;17.70;48.90;;;;;;5053736;28;20175;-65
2022/03/14 01:07:57;;;;;;;1.48;1.38;;;17.80;48.90;;;;;;5053274;28;20256;-67
2022/03/14 01:10:23;;;;;;;1.60;1.50;;;17.70;48.90;;;;;;5052595;28;20174;-67
2022/03/14 01:12:49;;;;;;;1.73;1.40;;;17.80;48.90;;;;;;5053486;28;20181;-68
2022/03/14 01:15:14;;;;;;;2.15;1.40;;;17.80;48.90;;;;;;5052148;28;20172;-68
2022/03/14 01:17:40;;;;;;;1.80;1.60;;;17.70;48.90;;;;;;5052642;28;20190;-67
2022/03/14 01:20:06;;;;;;;1.95;1.85;;;17.70;48.90;;;;;;5053010;28;20191;-67
2022/03/14 01:22:32;;;;;;;1.45;1.35;;;17.70;48.90;;;;;;5051269;28;20198;-68
2022/03/14 01:24:57;;;;;;;1.50;1.40;;;17.70;48.90;;;;;;5053306;28;20614;-68
2022/03/14 01:27:23;;;;;;;1.58;1.48;;;17.70;49.00;;;;;;5052953;28;20246;-68
2022/03/14 01:29:51;;;;;;;1.40;1.30;;;17.70;48.90;;;;;;5052321;28;20175;-67
2022/03/14 01:32:17;;;;;;;1.60;1.50;;;17.70;49.00;;;;;;5052733;28;20174;-67
2022/03/14 01:34:42;;;;;;;1.60;1.50;;;17.70;49.00;;;;;;5053157;28;20259;-66
2022/03/14 01:37:08;;;;;;;1.83;1.73;;;17.70;49.00;;;;;;5051828;28;20202;-66
2022/03/14 01:39:34;;;;;;;1.65;1.30;;;17.70;48.90;;;;;;5052972;28;20173;-67
2022/03/14 01:42:00;;;;;;;1.60;1.50;;;17.70;49.00;;;;;;5053012;28;20198;-67
2022/03/14 01:44:25;;;;;;;1.60;1.50;;;17.70;49.00;;;;;;5051837;28;20187;-68
2022/03/14 01:46:52;;;;;;;1.63;1.52;;;17.70;49.00;;;;;;5052808;28;20576;-67
2022/03/14 01:49:18;;;;;;;1.50;1.40;;;17.70;49.00;;;;;;5052591;28;20289;-68
2022/03/14 01:51:44;;;;;;;2.08;1.40;;;17.70;49.00;;;;;;5051958;28;20710;-67
2022/03/14 01:54:09;;;;;;;1.60;1.50;;;17.70;49.00;;;;;;5052565;28;20171;-68
2022/03/14 01:56:35;;;;;;;1.15;1.15;;;17.70;49.00;;;;;;5052417;28;20218;-67
2022/03/14 01:59:01;;;;;;;1.40;1.30;;;17.60;49.00;;;;;;5051929;28;20178;-67
2022/03/14 02:01:29;;;;;;;1.30;1.20;;;17.60;48.90;;;;;;5052276;28;20195;-67
2022/03/14 02:03:55;;;;;;;1.55;1.45;;;17.60;49.00;;;;;;5052569;28;20179;-65
2022/03/14 02:06:20;;;;;;;1.42;1.33;;;17.60;48.90;;;;;;5051389;28;20779;-66
2022/03/14 02:08:46;;;;;;;1.35;1.25;;;17.60;48.90;;;;;;5052754;28;20656;-67
2022/03/14 02:11:11;;;;;;;1.30;1.20;;;17.60;48.90;;;;;;5052135;28;20171;-67
2022/03/14 02:13:37;;;;;;;1.75;1.42;;;17.60;49.00;;;;;;5051877;28;20277;-68
2022/03/14 02:16:06;;;;;;;1.73;1.63;;;17.60;48.90;;;;;;5051274;28;20171;-68
2022/03/14 02:18:34;;;;;;;1.30;1.20;;;17.60;48.90;;;;;;5052256;28;20191;-68
2022/03/14 02:21:00;;;;;;;1.33;1.25;;;17.60;48.90;;;;;;5051742;28;20179;-68
2022/03/14 02:23:26;;;;;;;1.60;1.17;;;17.60;49.00;;;;;;5052244;28;20228;-68
2022/03/14 02:25:52;;;;;;;1.60;1.50;;;17.60;49.00;;;;;;5051571;28;20591;-68
2022/03/14 02:28:19;;;;;;;1.23;1.17;;;17.60;49.00;;;;;;5055332;28;20211;-68
2022/03/14 02:30:44;;;;;;;1.30;1.20;;;17.60;49.00;;;;;;5056355;28;20650;-68
2022/03/14 02:33:11;;;;;;;1.50;1.40;;;17.60;49.00;;;;;;5055288;28;20228;-67
2022/03/14 02:35:38;;;;;;;1.27;1.17;;;17.60;49.00;;;;;;5056535;28;20229;-67
2022/03/14 02:38:04;;;;;;;1.55;1.30;;;17.60;49.10;;;;;;5056479;28;20301;-66
2022/03/14 02:40:29;;;;;;;1.20;1.10;;;17.60;49.00;;;;;;5055374;28;20733;-66
2022/03/14 02:42:55;;;;;;;1.33;1.23;;;17.60;49.10;;;;;;5056117;28;20186;-66
2022/03/14 02:45:21;;;;;;;1.40;1.30;;;17.60;49.00;;;;;;5055927;28;20175;-67
2022/03/14 02:47:49;;;;;;;1.63;1.52;;;17.60;49.00;;;;;;5055265;28;20568;-67
2022/03/14 02:50:15;;;;;;;1.35;1.25;;;17.50;49.00;;;;;;5055897;28;20705;-67
2022/03/14 02:52:41;;;;;;;1.50;1.40;;;17.60;49.00;;;;;;5056252;28;20228;-67
2022/03/14 02:55:07;;;;;;;0.95;0.95;;;17.60;49.00;;;;;;5055139;28;20211;-67
2022/03/14 02:57:32;;;;;;;1.15;1.15;;;17.60;49.10;;;;;;5055797;28;20265;-67
2022/03/14 02:59:58;;;;;;;1.10;1.10;;;17.60;49.00;;;;;;5055835;28;20198;-66
2022/03/14 03:02:24;;;;;;;1.35;1.33;;;17.60;49.10;;;;;;5054744;28;20578;-67
2022/03/14 03:04:53;;;;;;;1.25;1.15;;;17.50;49.10;;;;;;5055985;28;20175;-67
2022/03/14 03:07:19;;;;;;;1.48;1.10;;;17.60;49.10;;;;;;5055633;28;20685;-66
2022/03/14 03:09:45;;;;;;;1.27;1.23;;;17.60;49.10;;;;;;5055204;28;20256;-67
2022/03/14 03:12:15;;;;;;;1.08;1.08;;;17.50;49.00;;;;;;5055378;28;20237;-69
2022/03/14 03:14:41;;;;;;;1.13;1.13;;;17.50;49.00;;;;;;5055626;28;20187;-68
2022/03/14 03:17:06;;;;;;;1.55;1.45;;;17.50;49.00;;;;;;5054506;28;20171;-68
2022/03/14 03:19:32;;;;;;;1.30;1.20;;;17.50;48.90;;;;;;5055691;28;20186;-68
2022/03/14 03:21:58;;;;;;;1.17;1.10;;;17.50;49.00;;;;;;5054797;28;20171;-68
2022/03/14 03:24:23;;;;;;;1.50;1.40;;;17.50;49.00;;;;;;5055176;28;20167;-67
2022/03/14 03:26:49;;;;;;;1.27;1.17;;;17.50;49.00;;;;;;5055584;28;20237;-68
2022/03/14 03:29:14;;;;;;;1.20;1.10;;;17.50;49.00;;;;;;5054293;28;20190;-68
2022/03/14 03:31:40;;;;;;;1.50;1.40;;;17.50;49.00;;;;;;5055187;28;20233;-67
2022/03/14 03:34:08;;;;;;;1.08;1.08;;;17.50;49.00;;;;;;5055367;28;20167;-66
2022/03/14 03:36:34;;;;;;;1.00;1.00;;;17.50;49.10;;;;;;5054833;28;20176;-67
2022/03/14 03:38:59;;;;;;;1.33;1.30;;;17.50;49.10;;;;;;5054006;28;20343;-67
2022/03/14 03:41:25;;;;;;;1.13;1.13;;;17.50;49.10;;;;;;5054929;28;20274;-67
2022/03/14 03:43:51;;;;;;;1.40;1.30;;;17.50;49.10;;;;;;5054449;28;20187;-67
2022/03/14 03:46:16;;;;;;;1.08;1.08;;;17.50;49.20;;;;;;5054588;28;20171;-68
2022/03/14 03:48:42;;;;;;;1.58;1.30;;;17.50;49.10;;;;;;5055610;28;20167;-67
2022/03/14 03:51:07;;;;;;;1.73;1.63;;;17.50;49.10;;;;;;5054030;28;20233;-68
2022/03/14 03:53:33;;;;;;;1.63;1.20;;;17.50;49.20;;;;;;5054892;28;20703;-67
2022/03/14 03:55:58;;;;;;;1.30;1.17;;;17.50;49.20;;;;;;5054677;28;20284;-67
2022/03/14 03:58:24;;;;;;;1.33;1.23;;;17.50;49.20;;;;;;5053834;28;20167;-67
2022/03/14 04:00:51;;;;;;;1.40;1.30;;;17.40;49.10;;;;;;5054707;28;20179;-66
2022/03/14 04:03:19;;;;;;;1.10;1.00;;;17.50;49.10;;;;;;5054511;28;20175;-66
2022/03/14 04:05:45;;;;;;;1.40;1.30;;;17.50;49.20;;;;;;5054187;28;20209;-66
2022/03/14 04:08:13;;;;;;;1.63;1.42;;;17.50;49.10;;;;;;5054458;28;20272;-66
2022/03/14 04:10:39;;;;;;;1.17;1.10;;;17.40;49.10;;;;;;5055300;28;20175;-67
2022/03/14 04:13:06;;;;;;;1.27;1.17;;;17.40;49.10;;;;;;5053924;28;20543;-67
2022/03/14 04:15:39;;;;;;;1.50;1.40;;;17.40;49.10;;;;;;5054433;28;20179;-68
2022/03/14 04:18:04;;;;;;;1.40;1.30;;;17.40;49.10;;;;;;5054777;28;20186;-67
2022/03/14 04:20:30;;;;;;;1.17;1.13;;;17.40;49.20;;;;;;5053567;28;20176;-68
2022/03/14 04:22:55;;;;;;;1.02;1.02;;;17.40;49.20;;;;;;5054388;28;20730;-68
2022/03/14 04:25:21;;;;;;;1.30;1.20;;;17.40;49.20;;;;;;5053300;28;20175;-67
2022/03/14 04:27:46;;;;;;;1.30;1.20;;;17.40;49.20;;;;;;5055096;28;20247;-68
2022/03/14 04:30:13;;;;;;;1.83;1.40;;;17.40;49.30;;;;;;5054116;28;20178;-68
2022/03/14 04:32:39;;;;;;;1.08;1.08;;;17.40;49.20;;;;;;5053523;28;20570;-68
2022/03/14 04:35:08;;;;;;;1.35;1.25;;;17.40;49.20;;;;;;5054277;28;20171;-66
2022/03/14 04:37:33;;;;;;;1.10;1.10;;;17.40;49.20;;;;;;5054336;28;20182;-66
2022/03/14 04:39:59;;;;;;;1.13;1.13;;;17.40;49.30;;;;;;5053430;28;20176;-67
2022/03/14 04:42:24;;;;;;;1.30;1.20;;;17.40;49.30;;;;;;5053474;28;20540;-67
2022/03/14 04:44:51;;;;;;;1.40;1.30;;;17.40;49.30;;;;;;5054113;28;20171;-68
2022/03/14 04:47:17;;;;;;;1.20;1.20;;;17.40;49.30;;;;;;5052954;28;20211;-68
2022/03/14 04:49:42;;;;;;;1.25;1.20;;;17.40;49.40;;;;;;5053700;28;20520;-69
2022/03/14 04:52:08;;;;;;;0.90;0.90;;;17.40;49.40;;;;;;5053655;28;20175;-69
2022/03/14 04:54:37;;;;;;;1.10;1.10;;;17.40;49.40;;;;;;5053433;28;20199;-67
2022/03/14 04:57:02;;;;;;;1.10;1.10;;;17.40;49.40;;;;;;5053436;28;20272;-67
2022/03/14 04:59:28;;;;;;;1.25;1.17;;;17.40;49.40;;;;;;5053610;28;20183;-66
2022/03/14 05:01:53;;;;;;;1.13;1.10;;;17.40;49.40;;;;;;5052958;28;20191;-66
2022/03/14 05:04:22;;;;;;;0.98;0.98;;;17.30;49.40;;;;;;5053337;28;20217;-66
2022/03/14 05:06:48;;;;;;;1.02;1.02;;;17.30;49.40;;;;;;5053370;28;20669;-66
2022/03/14 05:09:13;;;;;;;1.20;1.10;;;17.30;49.40;;;;;;5052307;28;20182;-67
2022/03/14 05:11:39;;;;;;;1.42;1.33;;;17.30;49.40;;;;;;5053340;28;20175;-68
2022/03/14 05:14:07;;;;;;;1.33;1.23;;;17.30;49.40;;;;;;5053519;28;20652;-67
2022/03/14 05:16:33;;;;;;;1.58;1.48;;;17.30;49.50;;;;;;5052618;28;20190;-68
2022/03/14 05:19:01;;;;;;;1.45;1.35;;;17.30;49.50;;;;;;5053457;28;20171;-67
2022/03/14 05:21:27;;;;;;;1.88;1.15;;;17.30;49.50;;;;;;5052797;28;20229;-67
2022/03/14 05:23:52;;;;;;;1.10;1.10;;;17.30;49.40;;;;;;5052798;28;20182;-68
2022/03/14 05:26:18;;;;;;;1.02;1.02;;;17.30;49.50;;;;;;5052772;28;20255;-69
2022/03/14 05:28:43;;;;;;;1.33;1.23;;;17.30;49.60;;;;;;5052447;28;20242;-69
2022/03/14 05:31:09;;;;;;;1.20;1.10;;;17.30;49.60;;;;;;5052660;28;20175;-68
2022/03/14 05:33:34;;;;;;;1.30;1.20;;;17.30;49.60;;;;;;5052886;28;20643;-67
2022/03/14 05:36:01;;;;;;;1.45;1.35;;;17.20;49.60;;;;;;5052283;28;20183;-67
2022/03/14 05:38:28;;;;;;;1.20;1.10;;;17.30;49.60;;;;;;5052526;28;20210;-67
2022/03/14 05:40:54;;;;;;;1.15;1.10;;;17.30;49.60;;;;;;5052753;28;20233;-68
2022/03/14 05:43:24;;;;;;;1.63;1.20;;;17.20;49.60;;;;;;5051873;28;20175;-68
2022/03/14 05:45:50;;;;;;;1.30;1.20;;;17.30;49.70;;;;;;5052791;28;20179;-68
2022/03/14 05:48:15;;;;;;;1.13;1.13;;;17.20;49.70;;;;;;5052356;28;20583;-69
2022/03/14 05:50:41;;;;;;;1.02;1.02;;;17.30;49.70;;;;;;5052043;28;20187;-69
2022/03/14 05:53:06;;;;;;;1.42;1.33;;;17.20;49.70;;;;;;5052432;28;20256;-68
2022/03/14 05:55:32;;;;;;;1.30;1.25;;;17.30;49.70;;;;;;5052395;28;20254;-68
2022/03/14 05:57:58;;;;;;;1.15;1.15;;;17.30;49.80;;;;;;5052207;28;20262;-66
2022/03/14 06:00:24;;;;;;;1.40;1.30;;;17.20;49.70;;;;;;5052487;28;20221;-66
2022/03/14 06:02:50;;;;;;;1.55;1.45;;;17.20;49.70;;;;;;5052071;28;20175;-65
2022/03/14 06:05:18;;;;;;;1.48;1.38;;;17.20;49.70;;;;;;5051553;28;20531;-66
2022/03/14 06:07:43;;;;;;;1.33;1.23;;;17.20;49.70;;;;;;5052468;28;20218;-66
2022/03/14 06:10:09;;;;;;;1.10;1.10;;;17.20;49.80;;;;;;5052389;28;20174;-67
2022/03/14 06:12:37;;;;;;;1.20;1.10;;;17.20;49.90;;;;;;5051921;28;20175;-68
2022/03/14 06:15:03;;;;;;;1.17;1.17;;;17.20;49.80;;;;;;5052380;28;20612;-68
2022/03/14 06:17:29;;;;;;;1.58;1.48;;;17.20;49.80;;;;;;5052199;28;20174;-68
2022/03/14 06:19:54;;;;;;;1.20;1.10;;;17.20;49.80;;;;;;5051817;28;20183;-68
2022/03/14 06:22:21;;;;;;;1.30;1.20;;;17.20;49.80;;;;;;5052017;28;20174;-68
2022/03/14 06:24:47;;;;;;;1.10;1.10;;;17.20;49.80;;;;;;5051813;28;20281;-68
2022/03/14 06:27:17;;;;;;;1.00;1.00;;;17.20;49.80;;;;;;5051909;28;20577;-68
2022/03/14 06:29:42;;;;;;;1.35;1.25;;;17.20;49.80;;;;;;5052483;28;20206;-67
2022/03/14 06:32:08;;;;;;;1.13;1.13;;;17.20;49.80;;;;;;5051269;28;20919;-67
2022/03/14 06:34:34;;;;;;;1.42;1.33;;;17.20;50.00;;;;;;5052306;28;20523;-66
2022/03/14 06:36:59;;;;;;;1.20;1.20;;;17.20;49.90;;;;;;5052324;28;20247;-67
2022/03/14 06:39:25;;;;;;;1.30;1.20;;;17.20;50.00;;;;;;5051526;28;20239;-66
2022/03/14 06:41:51;;;;;;;0.98;0.98;;;17.10;49.90;;;;;;5052021;28;20186;-66
2022/03/14 06:44:18;;;;;;;1.50;1.40;;;17.10;50.00;;;;;;5052137;28;20211;-67
2022/03/14 06:46:44;;;;;;;1.50;1.40;;;17.20;50.60;;;;;;5051527;28;20289;-67
2022/03/14 06:49:13;;;;;;;1.10;1.10;;;17.10;50.00;;;;;;5051664;28;20555;-67
2022/03/14 06:51:42;;;;;;;1.50;1.40;;;17.10;50.00;;;;;;5051952;28;20216;-67
2022/03/14 06:54:09;;;;;;;1.17;1.15;;;17.20;50.60;;;;;;5051238;28;20257;-67
2022/03/14 06:56:35;;;;;;;1.23;1.13;;;17.10;50.00;;;;;;5051994;28;20262;-67
2022/03/14 06:59:00;;;;;;;1.10;1.10;;;17.10;50.00;;;;;;5052116;28;20241;-66
2022/03/14 07:01:30;;;;;;;1.40;1.30;;;17.10;50.00;;;;;;5051017;28;20182;-66
2022/03/14 07:03:58;;;;;;;1.20;1.20;;;17.10;50.00;;;;;;5052157;28;20192;-66
2022/03/14 07:06:24;;;;;;;1.40;1.30;;;17.50;50.20;;;;;;5051829;28;20273;-66
2022/03/14 07:08:49;;;;;;;1.27;1.23;;;17.10;49.90;;;;;;5051078;28;20201;-67
2022/03/14 07:11:15;;;;;;;1.33;1.23;;;17.10;50.00;;;;;;5051679;28;20630;-69
2022/03/14 07:13:40;;;;;;;1.25;1.15;;;17.10;50.10;;;;;;5053946;28;20190;-69
2022/03/14 07:16:06;;;;;;;1.40;1.30;;;17.10;50.10;;;;;;5054833;28;20175;-68
2022/03/14 07:18:31;;;;;;;2.33;1.80;;;17.10;49.90;;;;;;5055621;28;20171;-68
2022/03/14 07:20:57;;;;;;;3.05;1.38;;;17.10;49.90;;;;;;5055465;28;21231;-69
2022/03/14 07:23:23;;;;;;;3.15;1.40;;;17.20;50.00;;;;;;5054667;28;20575;-69
2022/03/14 07:25:50;;;;;;;1.63;1.50;;;17.20;50.00;;;;;;5055701;28;20249;-69
2022/03/14 07:28:15;;;;;;;1.40;1.30;;;17.20;50.00;;;;;;5054445;28;20214;-70
2022/03/14 07:30:41;;;;;;;1.52;1.30;;;17.20;50.30;;;;;;5055455;28;20178;-69
2022/03/14 07:33:07;;;;;;;2.50;1.70;;;17.30;50.20;;;;;;5054922;28;20655;-69
2022/03/14 07:35:32;;;;;;;1.73;1.45;;;17.30;50.40;;;;;;5054635;28;20175;-68
2022/03/14 07:37:58;;;;;;;1.73;1.25;;;17.40;50.60;;;;;;5055504;28;20179;-68
2022/03/14 07:40:24;;;;;;;1.92;1.60;;;17.50;50.50;;;;;;5054900;28;20250;-69
2022/03/14 07:42:50;;;;;;;1.88;1.00;;;17.60;50.40;;;;;;5055068;28;20608;-69
2022/03/14 07:45:17;;;;;;;2.70;1.40;;;17.70;50.30;;;;;;5054871;28;20244;-68
2022/03/14 07:47:43;;;;;;;4.28;1.52;;;17.80;50.20;;;;;;5054921;28;20211;-67
2022/03/14 07:50:09;;;;;;;3.50;1.40;;;18.00;50.10;;;;;;5054009;28;20622;-67
2022/03/14 07:52:34;;;;;;;1.30;1.20;;;18.10;50.00;;;;;;5055127;28;20187;-67
2022/03/14 07:55:00;;;;;;;2.47;1.48;;;18.20;49.90;;;;;;5055095;28;20179;-67
2022/03/14 07:57:26;;;;;;;1.85;1.40;;;18.30;49.70;;;;;;5053771;28;20723;-67
2022/03/14 07:59:52;;;;;;;2.00;1.42;;;18.40;49.50;;;;;;5055058;28;20228;-66
2022/03/14 08:02:17;;;;;;;1.83;1.65;;;18.50;49.20;;;;;;5054568;28;20262;-66
2022/03/14 08:04:43;;;;;;;2.50;1.25;;;18.60;49.00;;;;;;5054139;28;20636;-66
2022/03/14 08:07:08;;;;;;;1.52;1.42;;;18.60;49.00;;;;;;5054574;28;20687;-66
2022/03/14 08:09:34;;;;;;;1.70;1.60;;;18.60;49.10;;;;;;5054704;28;20225;-67
2022/03/14 08:12:00;;;;;;;1.98;1.50;;;18.60;49.10;;;;;;5054038;28;20225;-67
2022/03/14 08:14:26;;;;;;;2.50;1.77;;;18.60;49.10;;;;;;5054263;28;20195;-67
2022/03/14 08:16:51;;;;;;;2.50;1.80;;;18.50;49.10;;;;;;5054523;28;20222;-67
2022/03/14 08:19:17;;;;;;;1.58;1.40;;;18.50;49.10;;;;;;5053780;28;20182;-67
2022/03/14 08:21:43;;;;;;;1.85;1.42;;;18.50;49.20;;;;;;5054428;28;20175;-67
2022/03/14 08:24:09;;;;;;;3.83;1.70;;;18.30;49.30;;;;;;5053900;28;20175;-66
2022/03/14 08:26:34;;;;;;;1.83;1.60;;;18.30;49.50;;;;;;5053442;28;20194;-67
2022/03/14 08:29:00;;;;;;;2.13;1.80;;;18.20;49.60;;;;;;5054411;28;20642;-67
2022/03/14 08:31:25;;;;;;;5.00;1.80;;;18.20;49.70;;;;;;5053123;28;20229;-65
2022/03/14 08:33:51;;;;;;;2.63;1.60;;;18.10;49.70;;;;;;5054087;28;20183;-65
2022/03/14 08:36:20;;;;;;;2.20;1.90;;;18.10;49.90;;;;;;5054114;28;20164;-66
2022/03/14 08:38:46;;;;;;;1.80;1.70;;;18.10;49.90;;;;;;5053354;28;20182;-66
2022/03/14 08:41:16;;;;;;;2.83;1.83;;;18.10;50.00;;;;;;5053792;28;20241;-66
2022/03/14 08:43:42;;;;;;;2.22;1.98;;;18.00;50.00;;;;;;5054095;28;20175;-65
2022/03/14 08:46:08;;;;;;;1.88;1.67;;;18.00;50.10;;;;;;5052798;28;20190;-67
2022/03/14 08:48:33;;;;;;;3.58;2.33;;;18.00;50.10;;;;;;5054146;28;20284;-67
2022/03/14 08:50:59;;;;;;;4.35;2.05;;;18.00;50.20;;;;;;5053816;28;20188;-67
2022/03/14 08:53:24;;;;;;;3.33;2.53;;;18.00;50.40;;;;;;5052804;28;21137;-67
2022/03/14 08:55:52;;;;;;;2.28;2.08;;;18.00;50.30;;;;;;5053791;28;20218;-68
2022/03/14 08:58:17;;;;;;;2.28;1.88;;;18.10;50.30;;;;;;5053770;28;20192;-67
2022/03/14 09:00:43;;;;;;;1.88;1.77;;;18.10;50.20;;;;;;5052934;28;20206;-66
2022/03/14 09:03:09;;;;;;;2.42;2.22;;;18.10;50.20;;;;;;5053606;28;20237;-65
2022/03/14 09:05:34;;;;;;;1.77;1.67;;;18.10;50.10;;;;;;5053773;28;20179;-65
2022/03/14 09:08:00;;;;;;;2.40;2.20;;;18.10;50.10;;;;;;5052782;28;20669;-66
2022/03/14 09:10:26;;;;;;;1.92;1.83;;;18.10;50.20;;;;;;5053326;28;20190;-67
2022/03/14 09:12:51;;;;;;;3.55;2.20;;;18.10;50.20;;;;;;5053434;28;20546;-68
2022/03/14 09:15:17;;;;;;;2.85;1.88;;;18.10;50.20;;;;;;5052438;28;20262;-67
2022/03/14 09:17:50;;;;;;;3.28;2.33;;;18.10;50.20;;;;;;5053378;28;20183;-67
2022/03/14 09:20:15;;;;;;;2.03;1.90;;;18.10;50.30;;;;;;5053226;28;20181;-67
2022/03/14 09:22:45;;;;;;;2.60;1.90;;;18.10;50.30;;;;;;5052594;28;20191;-68
2022/03/14 09:25:12;;;;;;;2.20;2.00;;;18.20;50.20;;;;;;5053054;28;20244;-67
2022/03/14 09:27:37;;;;;;;2.30;2.10;;;18.20;50.20;;;;;;5052885;28;20268;-67
2022/03/14 09:30:04;;;;;;;2.72;2.20;;;18.10;50.20;;;;;;5052657;28;20171;-67
2022/03/14 09:32:30;;;;;;;2.28;2.08;;;18.10;50.20;;;;;;5052724;28;20558;-67
2022/03/14 09:34:59;;;;;;;2.28;2.08;;;18.10;50.30;;;;;;5052524;28;20182;-66
2022/03/14 09:37:25;;;;;;;2.75;2.20;;;18.00;50.30;;;;;;5051905;28;20187;-65
2022/03/14 09:39:51;;;;;;;2.30;2.10;;;18.00;50.30;;;;;;5052988;28;20314;-66
2022/03/14 09:42:16;;;;;;;2.50;2.30;;;18.00;50.40;;;;;;5052016;28;20270;-66
2022/03/14 09:44:42;;;;;;;2.50;2.30;;;18.00;50.50;;;;;;5051647;28;20178;-67
2022/03/14 09:47:08;;;;;;;2.60;2.40;;;18.00;50.50;;;;;;5052828;28;20251;-67
2022/03/14 09:49:34;;;;;;;2.67;2.40;;;18.00;50.50;;;;;;5050873;28;20661;-67
2022/03/14 09:52:00;;;;;;;2.65;2.40;;;18.00;50.50;;;;;;5051579;28;20660;-67
2022/03/14 09:54:26;;;;;;;3.33;2.58;;;17.90;50.60;;;;;;5052537;28;20192;-68
2022/03/14 09:56:51;;;;;;;4.30;2.88;;;17.90;50.60;;;;;;5050476;28;20223;-67
2022/03/14 09:59:17;;;;;;;2.50;2.30;;;17.90;50.70;;;;;;5052250;28;20183;-66
2022/03/14 10:01:42;;;;;;;2.70;2.45;;;17.80;50.70;;;;;;5053008;28;20274;-66
2022/03/14 10:04:08;;;;;;;2.65;2.45;;;17.90;50.80;;;;;;5051682;28;20178;-66
2022/03/14 10:06:35;;;;;;;2.78;2.55;;;17.80;50.70;;;;;;5052647;28;20604;-66
2022/03/14 10:09:00;;;;;;;3.08;2.70;;;17.80;50.80;;;;;;5052729;28;20183;-66
2022/03/14 10:11:26;;;;;;;2.63;2.42;;;17.80;50.80;;;;;;5051536;28;21045;-67
2022/03/14 10:13:52;;;;;;;4.22;2.80;;;17.90;50.90;;;;;;5052459;28;20171;-67
2022/03/14 10:16:17;;;;;;;3.05;2.83;;;17.90;50.90;;;;;;5052213;28;20656;-67
2022/03/14 10:19:07;;;;;;;3.22;2.63;;;17.90;50.70;;;;;;5051921;28;20173;-67
2022/03/14 10:21:34;;;;;;;3.00;2.70;;;17.90;50.70;;;;;;5052318;28;20183;-68
2022/03/14 10:24:07;;;;;;;3.38;2.55;;;17.90;50.70;;;;;;5051399;28;20249;-68
2022/03/14 10:26:33;;;;;;;3.50;3.20;;;17.90;50.70;;;;;;5052500;28;20190;-68
2022/03/14 10:29:00;;;;;;;4.05;3.33;;;18.00;50.70;;;;;;5052553;28;20191;-67
2022/03/14 10:31:56;;;;;;;3.28;2.67;;;18.00;50.60;;;;;;5051566;28;20183;-67
2022/03/14 10:34:21;;;;;;;4.10;3.20;;;18.00;50.60;;;;;;5051497;28;20183;-65
2022/03/14 10:36:47;;;;;;;2.95;2.75;;;18.00;50.50;;;;;;5052448;28;20175;-70
2022/03/14 10:39:25;;;;;;;3.30;3.03;;;18.00;50.60;;;;;;5051524;28;20178;-66
2022/03/14 10:42:04;;;;;;;3.35;3.03;;;18.00;50.70;;;;;;5046679;28;20175;-66
2022/03/14 10:44:30;;;;;;;3.20;2.50;;;18.00;50.70;;;;;;5035480;28;20191;-66
2022/03/14 10:47:00;;;;;;;4.13;3.20;;;18.00;50.70;;;;;;5050661;28;20268;-67
2022/03/14 10:49:29;;;;;;;3.17;2.92;;;18.00;50.70;;;;;;5055456;28;20203;-66
2022/03/14 10:52:10;;;;;;;3.40;3.10;;;18.00;50.70;;;;;;5056275;28;20182;-67
2022/03/14 10:54:38;;;;;;;3.33;3.08;;;18.00;50.70;;;;;;5056067;28;20637;-67
2022/03/14 10:57:05;;;;;;;4.72;3.40;;;18.00;50.60;;;;;;5055733;28;20227;-66
2022/03/14 10:59:41;;;;;;;3.05;2.83;;;18.00;50.60;;;;;;5055316;28;20183;-68
2022/03/14 11:02:12;;;;;;;4.97;3.40;;;18.00;50.80;;;;;;5055915;28;20167;-68
2022/03/14 11:04:47;;;;;;;5.63;3.40;;;18.00;51.10;;;;;;5056014;28;20179;-71
2022/03/14 11:07:13;;;;;;;4.65;3.28;;;18.00;50.90;;;;;;5054808;28;20252;-69
2022/03/14 11:09:40;;;;;;;4.07;3.10;;;18.00;50.90;;;;;;5055776;28;20224;-69
2022/03/14 11:12:09;;;;;;;5.28;3.97;;;18.00;50.90;;;;;;5055422;28;20175;-71
2022/03/14 11:14:36;;;;;;;4.93;3.35;;;18.00;51.10;;;;;;5054301;28;20229;-68
2022/03/14 11:17:21;;;;;;;3.97;3.53;;;18.00;51.10;;;;;;5054934;28;20187;-70
2022/03/14 11:19:46;;;;;;;3.58;3.13;;;18.00;51.00;;;;;;5053078;28;20316;-69
2022/03/14 11:22:13;;;;;;;3.92;3.10;;;18.10;51.00;;;;;;5054587;28;20258;-69
2022/03/14 11:24:49;;;;;;;4.50;3.40;;;18.10;51.00;;;;;;5055278;28;20258;-70
2022/03/14 11:27:21;;;;;;;3.40;3.10;;;18.10;51.00;;;;;;5054164;28;20593;-69
2022/03/14 11:29:47;;;;;;;5.22;3.33;;;18.10;51.10;;;;;;5055407;28;20182;-69
2022/03/14 11:32:13;;;;;;;5.47;3.75;;;18.10;51.10;;;;;;5054792;28;20560;-68
2022/03/14 11:34:39;;;;;;;3.80;3.33;;;18.10;51.10;;;;;;5037060;28;20175;-67
2022/03/14 11:37:04;;;;;;;4.18;3.17;;;18.10;51.00;;;;;;5054929;28;20167;-67
2022/03/14 11:39:31;;;;;;;3.60;3.30;;;18.20;51.20;;;;;;5054928;28;20254;-66
2022/03/14 11:41:57;;;;;;;3.85;3.55;;;18.20;51.00;;;;;;5053117;28;20258;-68
2022/03/14 11:44:24;;;;;;;4.00;3.70;;;18.10;51.00;;;;;;5054813;28;20183;-72
2022/03/14 11:46:50;;;;;;;4.22;3.30;;;18.20;51.10;;;;;;5053400;28;20184;-72
2022/03/14 11:49:16;;;;;;;4.00;3.60;;;18.30;50.80;;;;;;5052738;28;20190;-72
2022/03/14 11:51:42;;;;;;;4.43;3.47;;;18.30;50.90;;;;;;5054601;28;20175;-69
2022/03/14 11:54:12;;;;;;;4.50;3.42;;;18.40;50.70;;;;;;5054789;28;20175;-68
2022/03/14 11:56:38;;;;;;;3.95;3.38;;;18.30;50.70;;;;;;5054101;28;20269;-68
2022/03/14 11:59:10;;;;;;;5.38;3.45;;;18.40;50.70;;;;;;5054401;28;20179;-67
2022/03/14 12:01:47;;;;;;;3.50;3.20;;;18.30;50.80;;;;;;5053679;28;20195;-70
2022/03/14 12:04:35;;;;;;;3.97;3.58;;;18.30;50.90;;;;;;5053710;28;20287;-69
2022/03/14 12:07:05;;;;;;;4.15;3.33;;;18.30;51.00;;;;;;5054825;28;20199;-68
2022/03/14 12:09:31;;;;;;;8.05;3.60;;;18.30;50.90;;;;;;5053829;28;20176;-69
2022/03/14 12:12:08;;;;;;;4.30;3.42;;;18.40;50.80;;;;;;5054846;28;20171;-70
2022/03/14 12:14:44;;;;;;;5.55;3.03;;;18.40;50.90;;;;;;5054732;28;20167;-72
2022/03/14 12:17:13;;;;;;;4.78;3.38;;;18.40;51.00;;;;;;5053399;28;20516;-71
2022/03/14 12:19:51;;;;;;;3.35;3.05;;;18.40;50.90;;;;;;5054763;28;20179;-71
2022/03/14 12:22:29;;;;;;;4.25;3.40;;;18.60;50.80;;;;;;5054222;28;20552;-68
2022/03/14 12:24:55;;;;;;;4.18;3.75;;;18.60;50.60;;;;;;5053690;28;20256;-67
2022/03/14 12:27:26;;;;;;;3.53;3.22;;;18.60;50.50;;;;;;5054127;28;20203;-68
2022/03/14 12:29:54;;;;;;;3.47;3.20;;;18.60;50.70;;;;;;5054523;28;20199;-68
2022/03/14 12:32:26;;;;;;;4.40;3.30;;;18.60;50.60;;;;;;5053224;28;20576;-68
2022/03/14 12:34:59;;;;;;;4.63;3.22;;;18.70;50.50;;;;;;5054552;28;20179;-67
2022/03/14 12:37:26;;;;;;;5.57;3.00;;;18.70;50.40;;;;;;5053698;28;20615;-67
2022/03/14 12:39:52;;;;;;;2.78;2.58;;;18.70;50.40;;;;;;5051962;28;20706;-68
2022/03/14 12:42:22;;;;;;;3.63;3.25;;;18.80;50.30;;;;;;5053848;28;20187;-67
2022/03/14 12:45:13;;;;;;;4.50;3.15;;;18.80;50.30;;;;;;5053510;28;20222;-68
2022/03/14 12:47:41;;;;;;;3.67;3.20;;;18.80;50.30;;;;;;5054012;28;20241;-68